fechar
X Fechar
X Fechar

X Fechar
foto
Salvar nos Favoritos

X Fechar
foto
Clique e saiba mais
Clique e saiba mais
Clique e saiba mais
Clique e saiba mais
Clique e saiba mais
Clique e saiba mais
Clique e saiba mais

América Sports

Capacete Companhia

RM - Motocross Racing

Edgers Racing

RX Graphics

JPS Racing

Ohlins

DLua Racing

Toro Sports

Clique e saiba mais

> Notícias > Últimas Notícias

Mundial de Motocross 2017: resultados e vídeo da classificatória na França
Publicado em: 16/09/2017

Classificatórias correm no barro em Villars Sous Ecot
Redação MotoX.com.br: Lucidio Arruda - Fotos: Max Zanzani

A chuva deixou o circuito francês bem marcado e dificultou a pilotagem neste sábado. As quedas e escoradas foram comuns, tanto na classificatória da MX2, como na classe principal MXGP.


Max Anstie

O público francês torceu bastante por Romain Febvre, que tomou a liderança de Max Anstie e liderou a maior parte da corrida. Na fase final o britânico voltou a pressionar e os dois ficaram emparelhados em várias oportunidades. Na abertura da última volta Anstie fez o duplo em subida e conseguiu definitivamente a primeira posição. Sem óculos, Febvre não teve muitas chances de contra-atacar.

Jeffrey Herlings ficou com a terceira posição após uma boa briga com Gautier Paulin. Tim Gajser foi o quinto colocado, apesar de uma queda durante as voltas iniciais. Antonio Cairoli ficou em 13º depois de começar a prova fora dos 20 primeiros.

MX2 - Hunter Lawrencer dominou a bateria


Hunter Lawrence

O australiano Hunter Lawrence largou na frente e, podemos dizer, foi embora. Abriu vantagem de 24 segundos durante as 12 voltas da classificatória.

Os candidatos ao título Pauls Jonass e Jeremy Seewer duelaram por várias voltas até que o suíço sofreu uma queda e ficou lá para trás, completando em oitavo. Brian Bogers foi o terceiro colocado a mais de 50 segundos de Lawrence.

Como Acompanhar

As provas principais neste domingo podem ser acompanhadas na MXGP-TV, ao vivo ou sob demanda em pacotes pagos por etapa ou todo o campeonato. O site da BandSports informa a transmissão (VT) das baterias MXGP a partir das 14h de domngo.

No MotoX a cronometragem e resultados ao vivo ficam disponíveis no link: www.motox.com.br/liveresults/mundialmx/ .

Cronograma (horários de Brasília)

Domingo, 17 de setembro
04:40 WMX Race 2
06:25 EMX 250 Race 2
08:00 MX2 Race 1
09:00 MXGP Race 1
11:00 MX2 Race 2
12:00 MXGP Race 2

Vídeo



Resultados

P. Nac MXGP M Tempo Diff Gap Melhor Volta Last Lap
1 GB M. Anstie (99) HUS 25:02.964 +10:39.999 +10:39.999 01:53.057 12: 01:53.057
2 FR R. Febvre (461) YAM 25:05.440 +00:02.476 +00:02.476 01:52.643 12: 01:55.223
3 NL J. Herlings (84) KTM 25:28.097 +00:25.133 +00:22.657 01:54.055 12: 01:58.946
4 FR G. Paulin (21) HUS 25:32.516 +00:29.552 +00:04.419 01:56.479 12: 01:58.604
5 BE K. Strijbos (22) SUZ 25:37.902 +00:34.938 +00:05.386 01:56.151 12: 01:58.874
6 SI T. Gajser (243) HON 25:46.687 +00:43.723 +00:08.785 01:53.494 12: 01:57.763
7 DE M. Nagl (12) HUS 25:49.271 +00:46.307 +00:02.584 01:56.148 12: 01:59.295
8 CH A. Tonus (4) YAM 26:04.069 +01:01.105 +00:14.798 01:56.814 12: 02:00.565
9 RU E. Bobryshev (777) HON 26:04.715 +01:01.751 +00:00.646 01:57.504 12: 02:02.028
10 BE J. V. Horebeek (89) YAM 26:13.472 +01:10.508 +00:08.757 01:55.399 12: 01:57.606
11 NL G. Coldenhoff (259) KTM 26:16.239 +01:13.275 +00:02.767 01:56.862 12: 02:02.180
12 IT A. Lupino (77) HON 26:19.606 +01:16.642 +00:03.367 01:57.215 12: 02:01.157
13 IT A. Cairoli (222) KTM 26:47.548 +01:44.584 +00:27.942 01:56.425 12: 02:05.049
14 GB S. Simpson (24) YAM 27:00.305 +01:57.341 +00:12.757 02:01.787 12: 02:01.787
15 EE T. Leok (7) HUS 27:01.984 +01:59.020 +00:01.679 01:59.766 12: 02:02.464
16 FR M. Desprey (141) KAW 25:16.513 -1 lap -1 lap 02:02.444 11: 02:04.363
17 FR X. Boog (121) HON 25:18.766 -1 lap -1 lap 01:59.783 11: 01:59.783
18 CH V. Guillod (92) HON 25:35.949 -1 lap -1 lap 02:00.826 11: 02:03.270
19 PT R. Goncalves (999) HUS 25:36.709 -1 lap -1 lap 02:01.452 11: 02:06.352
20 BE D. Graulus (71) HON 25:45.908 -1 lap -1 lap 02:02.905 11: 02:05.241
21 GB T. Searle (100) KAW 26:01.187 -1 lap -1 lap 02:02.020 11: 02:05.203
22 DE S. Ekerold (117) SUZ 26:12.080 -1 lap -1 lap 02:01.794 11: 02:08.026
23 FR N. Dercourt (411) YAM 26:13.859 -1 lap -1 lap 02:04.122 11: 02:07.504
24 ES A. Valentin (920) HON 26:17.466 -1 lap -1 lap 02:04.500 11: 02:07.312
25 GB D. T. (195) HUS 26:24.614 -1 lap -1 lap 02:08.691 11: 02:15.447
26 CH A. Baumgartner (82) KTM 26:31.598 -1 lap -1 lap 02:09.008 11: 02:09.371
27 SI J. Irt (49) HUS 26:34.747 -1 lap -1 lap 02:08.903 11: 02:09.659
28 BE B. Boulard (47) YAM 26:53.303 -1 lap -1 lap 02:06.745 11: 02:06.745
29 FR J. Clermont (817) KAW 26:55.945 -1 lap -1 lap 02:05.499 11: 02:10.451
30 CH N. Bender (710) HUS 25:35.752 -3 laps -3 laps 02:18.874 9: 02:31.095
31 FR L. Macler (452) HON 26:54.061 -5 laps -5 laps 02:50.483 7: 02:59.862
32 ZA M. Docherty (868) YAM 08:56.403 -10 laps -10 laps 02:26.415  

P. Nac MX2 M Tempo Diff Gap Melhor Volta Last Lap
1 AU H. Lawrence (96) SUZ 25:37.327 +10:39.999 +10:39.999 01:54.408 12: 02:01.734
2 LV P. Jonass (41) KTM 26:01.400 +00:24.073 +00:24.073 01:57.627 12: 02:05.051
3 NL B. Bogers (189) KTM 26:31.109 +00:53.782 +00:29.709 01:57.371 12: 02:05.635
4 AU J. Beaton (14) HON 26:42.403 +01:05.076 +00:11.294 02:00.390 12: 02:03.717
5 NL D. Pootjes (46) KTM 26:51.435 +01:14.108 +00:09.032 02:01.047 12: 02:03.556
6 US T. Covington (64) HUS 26:53.454 +01:16.127 +00:02.019 02:01.209 12: 02:01.311
7 BE B. V. doninck (172) YAM 26:56.701 +01:19.374 +00:03.247 02:01.137 12: 02:03.078
8 CH J. Seewer (91) SUZ 26:57.303 +01:19.976 +00:00.602 01:56.288 12: 02:01.456
9 BE J. Lieber (33) KTM 27:07.808 +01:30.481 +00:10.505 02:01.727 12: 02:04.268
10 FR S. Rubini (118) KAW 27:15.724 +01:38.397 +00:07.916 02:02.652 12: 02:10.242
11 DE H. Jacobi (29) HUS 27:27.450 +01:50.123 +00:11.726 02:02.286 12: 02:10.413
12 ES J. P. Garcia (61) KTM 27:34.060 +01:56.733 +00:06.610 02:03.552 12: 02:09.275
13 DK T. K. Olsen (19) HUS 25:43.174 -1 lap -1 lap 02:03.383 11: 02:04.068
14 FR Z. Pichon (101) SUZ 25:47.093 -1 lap -1 lap 02:05.537 11: 02:11.742
15 NL C. Vlaanderen (10) KTM 25:49.417 -1 lap -1 lap 02:05.144 11: 02:05.144
16 SE A. Östlund (161) YAM 26:04.460 -1 lap -1 lap 02:05.436 11: 02:09.559
17 GB B. Watson (919) KTM 26:07.694 -1 lap -1 lap 02:04.758 11: 02:23.501
18 SE A. Gole (297) TM 26:10.859 -1 lap -1 lap 02:07.588 11: 02:13.189
19 GB C. Mewse (426) HUS 26:21.998 -1 lap -1 lap 02:04.757 11: 02:05.012
20 NO M. Klingsheim (67) KAW 26:45.563 -1 lap -1 lap 02:08.964 11: 02:14.311
21 BE N. Renkens (83) KTM 27:14.188 -1 lap -1 lap 02:08.992 11: 02:15.893
22 GB B. Todd (714) YAM 27:20.262 -1 lap -1 lap 02:11.938 11: 02:15.821
23 HR L. Crnkovic (131) YAM 25:50.763 -2 laps -2 laps 02:12.706 10: 02:22.130
24 FR E. Toriani (783) HUS 27:36.611 -2 laps -2 laps 02:14.887 10: 02:28.590
25 IT M. Mantovani (722) YAM 27:40.171 -2 laps -2 laps 02:14.539 10: 02:36.331
26 US D. Sanayei (57) KAW 12:59.161 -7 laps -7 laps 02:02.017 5: 02:06.594
27 NL M. D. Waal (95) HON 13:42.423 -7 laps -7 laps 02:01.594 5: 02:01.648
28 IT I. Monticelli (128) KTM 12:48.115 -8 laps -8 laps 02:03.828 4: 04:00.865
29 ES J. Zaragoza (199) YAM 04:10.400 -11 laps -11 laps 02:06.290  
30 FR J. Clochet (520) KAW 05:19.889 -12 laps -12 laps 10:39.999  







Vídeos MotoX Connect



Acompanhe o MotoX no Facebook

Curso MotoX
Brasil Racing
JPS Racing

© 2000 - 2017 MotoX MX1 Internet